RoSS Sea — WDE3122 — position and weather

sailwx.info

Track history (hours):
 
Tides and Currents Weather Stations Pressure Air Temp Water Temp Dewpoint Dewpoint Depression Visibility Wind Speed Wind Dir Waves Ship Positions

RoSS Sea

Owner: Kirby Inland Marine, LP, Houston, TX. More information available from US FCC via Universal Licensing System and Coast Guard Vessel Documentation Center.

Last reported at 2016-May-06 07:29 UTC. Time now 2016-May-06 09:13 UTC.
Position N 40°39' W 074°10'.

Length 30 m; draft 5 m.

Type: Towing. MMSI: 367334360.

Date/timePositionNaut miles runAvg speedWind from/ knotsBaromVisibWave heightAir tempDewpointWater temp
2016-May-06 07:29N 40°39' W 074°10'0 0.0
2016-May-06 03:20N 40°39' W 074°10'4 5.4
2016-May-06 02:32N 40°42' W 074°07'1 1.0
2016-May-06 01:30N 40°41' W 074°08'3 0.2
2016-May-05 12:33N 40°39' W 074°10'4 4.0
2016-May-05 11:33N 40°39' W 074°04'3 0.2
2016-May-04 21:33N 40°39' W 074°09'3 3.4
2016-May-04 20:33N 40°40' W 074°04'0 0.0
2016-May-04 19:33N 40°40' W 074°04'0 0.0
2016-May-04 18:33N 40°40' W 074°04'0 0.0
2016-May-04 17:33N 40°40' W 074°04'0 0.0
2016-May-04 16:33N 40°40' W 074°04'0 0.2
2016-May-04 15:33N 40°40' W 074°04'0 0.2
2016-May-04 14:33N 40°40' W 074°04'0 0.0
2016-May-04 13:33N 40°40' W 074°04'1 0.5
2016-May-04 12:33N 40°39' W 074°04'1 0.9
2016-May-04 11:33N 40°39' W 074°05'4 3.6
2016-May-04 10:33N 40°39' W 074°10'0 0.0
2016-May-04 09:33N 40°39' W 074°10'0 0.0
2016-May-04 08:34N 40°39' W 074°10'0 0.0
2016-May-04 07:15N 40°39' W 074°10'0 0.0
2016-May-04 06:29N 40°39' W 074°10'0 0.0
2016-May-04 05:32N 40°39' W 074°10'0 0.0
2016-May-04 04:33N 40°39' W 074°10'0 0.0
2016-May-04 03:34N 40°39' W 074°10'0 0.0
2016-May-04 02:33N 40°39' W 074°10'0 0.0
2016-May-04 01:33N 40°39' W 074°10'0 0.0
2016-May-04 00:33N 40°39' W 074°10'1 0.5
2016-May-03 23:33N 40°38' W 074°09'1 0.5
2016-May-03 22:34N 40°39' W 074°10'0 0.0
2016-May-03 21:30N 40°39' W 074°10'0 0.0
2016-May-03 20:24N 40°38' W 074°10'0 0.0
2016-May-03 19:09N 40°39' W 074°10'0 0.0
2016-May-03 18:26N 40°38' W 074°10'0 0.0
2016-May-03 16:23N 40°38' W 074°10'5 5.6
2016-May-03 15:33N 40°40' W 074°04'1 1.2
2016-May-03 14:33N 40°40' W 074°03'0 0.1
2016-May-03 13:33N 40°40' W 074°02'0 0.0
2016-May-03 12:33N 40°40' W 074°02'0 0.1
2016-May-03 11:33N 40°40' W 074°02'0 0.0
2016-May-03 10:33N 40°40' W 074°02'0 0.0
2016-May-03 09:33N 40°40' W 074°02'0 0.1
2016-May-03 08:34N 40°40' W 074°02'0 0.0
2016-May-03 07:34N 40°40' W 074°02'0 0.0
2016-May-03 06:33N 40°40' W 074°02'0 0.1
2016-May-03 05:33N 40°40' W 074°02'0 0.0
2016-May-03 04:33N 40°40' W 074°02'0 0.0
2016-May-03 03:33N 40°40' W 074°02'0 0.0
2016-May-03 02:33N 40°40' W 074°02'0 0.0
2016-May-03 01:32N 40°40' W 074°02'0 0.1
2016-May-03 00:33N 40°40' W 074°02'0 0.1
2016-May-02 23:33N 40°40' W 074°02'0 0.0
2016-May-02 22:33N 40°40' W 074°02'0 0.0
2016-May-02 21:34N 40°40' W 074°02'0 0.0
2016-May-02 20:34N 40°40' W 074°02'0 0.1
2016-May-02 19:34N 40°40' W 074°02'0 0.1
2016-May-02 18:33N 40°40' W 074°02'0 0.2
2016-May-02 17:33N 40°40' W 074°03'6 2.7
2016-May-02 15:27N 40°39' W 074°10'0 0.0
2016-May-02 14:33N 40°39' W 074°10'0 0.0
2016-May-02 11:18N 40°38' W 074°10'0 0.0
2016-May-02 08:27N 40°38' W 074°10'0 0.0
2016-May-02 07:34N 40°38' W 074°10'0 0.0
2016-May-01 23:15N 40°38' W 074°10'6 8.7
2016-May-01 22:34N 40°40' W 074°02'3 1.2
2016-May-01 19:34N 40°42' W 073°59'9 4.4
2016-May-01 17:28N 40°39' W 074°10'0 0.0
2016-May-01 16:29N 40°39' W 074°10'0 0.0
2016-May-01 13:25N 40°39' W 074°10'0 0.0
2016-May-01 12:13N 40°39' W 074°10'0 0.0
2016-May-01 08:33N 40°39' W 074°10'0 0.0
2016-May-01 07:33N 40°39' W 074°10'0 0.0
2016-May-01 06:34N 40°39' W 074°10'0 0.1
2016-May-01 03:26N 40°39' W 074°10'0 0.2
2016-May-01 01:07N 40°39' W 074°10'2 0.1
2016-Apr-30 06:31N 40°37' W 074°12'2 0.4
2016-Apr-30 00:11N 40°39' W 074°10'4 6.5
2016-Apr-29 23:33N 40°39' W 074°05'4 1.9
2016-Apr-29 21:21N 40°39' W 074°10'1 0.4
2016-Apr-29 17:33N 40°38' W 074°12'0 0.2
2016-Apr-29 16:34N 40°38' W 074°12'1 1.3
2016-Apr-29 15:34N 40°38' W 074°10'0 0.0
2016-Apr-29 14:34N 40°38' W 074°10'0 0.0
2016-Apr-29 13:34N 40°38' W 074°10'0 0.0
2016-Apr-29 12:33N 40°38' W 074°10'0 0.0
2016-Apr-29 11:34N 40°38' W 074°10'4 3.6
2016-Apr-29 10:32N 40°39' W 074°05'0 0.5
2016-Apr-29 09:31N 40°39' W 074°06'3 1.0
2016-Apr-29 06:13N 40°39' W 074°10'7 4.4
2016-Apr-29 04:33N 40°40' W 074°00'0 0.0
2016-Apr-29 03:33N 40°40' W 074°00'0 0.0
2016-Apr-29 02:34N 40°40' W 074°00'0 0.0
2016-Apr-29 01:33N 40°40' W 074°00'0 0.0
2016-Apr-29 00:34N 40°40' W 074°00'0 0.0
2016-Apr-28 23:34N 40°40' W 074°00'0 0.0
2016-Apr-28 22:34N 40°40' W 074°00'0 0.0
2016-Apr-28 21:34N 40°40' W 074°00'1 1.1
2016-Apr-28 20:33N 40°41' W 074°01'7 0.5
2016-Apr-28 06:29N 40°47' W 073°55'4 4.1
2016-Apr-28 05:34N 40°44' W 073°58'3 3.2
2016-Apr-28 04:34N 40°41' W 074°01'3 2.8
2016-Apr-28 03:34N 40°39' W 074°03'5 4.6
2016-Apr-28 02:34N 40°39' W 074°09'3 0.3
2016-Apr-27 15:06N 40°36' W 074°12'3 0.8
2016-Apr-27 11:28N 40°39' W 074°10'0 0.0
2016-Apr-27 05:27N 40°39' W 074°10'0 0.0
2016-Apr-27 02:15N 40°39' W 074°10'0 0.0
2016-Apr-27 01:32N 40°39' W 074°10'4 4.3
2016-Apr-27 00:34N 40°39' W 074°05'2 1.6
2016-Apr-26 23:33N 40°40' W 074°03'  
Track history (hours):
 
Tides and Currents Weather Stations Pressure Air Temp Water Temp Dewpoint Dewpoint Depression Visibility Wind Speed Wind Dir Waves Ship Positions

RoSS Sea

Owner: Kirby Inland Marine, LP, Houston, TX. More information available from US FCC via Universal Licensing System and Coast Guard Vessel Documentation Center.

Last reported at 2016-May-06 07:29 UTC. Time now 2016-May-06 09:13 UTC.
Position N 40°39' W 074°10'.

Length 30 m; draft 5 m.

Type: Towing. MMSI: 367334360.

Date/timePositionNaut miles runAvg speedWind from/ knotsBaromVisibWave heightAir tempDewpointWater temp
2016-May-06 07:29N 40°39' W 074°10'0 0.0
2016-May-06 03:20N 40°39' W 074°10'4 5.4
2016-May-06 02:32N 40°42' W 074°07'1 1.0
2016-May-06 01:30N 40°41' W 074°08'3 0.2
2016-May-05 12:33N 40°39' W 074°10'4 4.0
2016-May-05 11:33N 40°39' W 074°04'3 0.2
2016-May-04 21:33N 40°39' W 074°09'3 3.4
2016-May-04 20:33N 40°40' W 074°04'0 0.0
2016-May-04 19:33N 40°40' W 074°04'0 0.0
2016-May-04 18:33N 40°40' W 074°04'0 0.0
2016-May-04 17:33N 40°40' W 074°04'0 0.0
2016-May-04 16:33N 40°40' W 074°04'0 0.2
2016-May-04 15:33N 40°40' W 074°04'0 0.2
2016-May-04 14:33N 40°40' W 074°04'0 0.0
2016-May-04 13:33N 40°40' W 074°04'1 0.5
2016-May-04 12:33N 40°39' W 074°04'1 0.9
2016-May-04 11:33N 40°39' W 074°05'4 3.6
2016-May-04 10:33N 40°39' W 074°10'0 0.0
2016-May-04 09:33N 40°39' W 074°10'0 0.0
2016-May-04 08:34N 40°39' W 074°10'0 0.0
2016-May-04 07:15N 40°39' W 074°10'0 0.0
2016-May-04 06:29N 40°39' W 074°10'0 0.0
2016-May-04 05:32N 40°39' W 074°10'0 0.0
2016-May-04 04:33N 40°39' W 074°10'0 0.0
2016-May-04 03:34N 40°39' W 074°10'0 0.0
2016-May-04 02:33N 40°39' W 074°10'0 0.0
2016-May-04 01:33N 40°39' W 074°10'0 0.0
2016-May-04 00:33N 40°39' W 074°10'1 0.5
2016-May-03 23:33N 40°38' W 074°09'1 0.5
2016-May-03 22:34N 40°39' W 074°10'0 0.0
2016-May-03 21:30N 40°39' W 074°10'0 0.0
2016-May-03 20:24N 40°38' W 074°10'0 0.0
2016-May-03 19:09N 40°39' W 074°10'0 0.0
2016-May-03 18:26N 40°38' W 074°10'0 0.0
2016-May-03 16:23N 40°38' W 074°10'5 5.6
2016-May-03 15:33N 40°40' W 074°04'1 1.2
2016-May-03 14:33N 40°40' W 074°03'0 0.1
2016-May-03 13:33N 40°40' W 074°02'0 0.0
2016-May-03 12:33N 40°40' W 074°02'0 0.1
2016-May-03 11:33N 40°40' W 074°02'0 0.0
2016-May-03 10:33N 40°40' W 074°02'0 0.0
2016-May-03 09:33N 40°40' W 074°02'0 0.1
2016-May-03 08:34N 40°40' W 074°02'0 0.0
2016-May-03 07:34N 40°40' W 074°02'0 0.0
2016-May-03 06:33N 40°40' W 074°02'0 0.1
2016-May-03 05:33N 40°40' W 074°02'0 0.0
2016-May-03 04:33N 40°40' W 074°02'0 0.0
2016-May-03 03:33N 40°40' W 074°02'0 0.0
2016-May-03 02:33N 40°40' W 074°02'0 0.0
2016-May-03 01:32N 40°40' W 074°02'0 0.1
2016-May-03 00:33N 40°40' W 074°02'0 0.1
2016-May-02 23:33N 40°40' W 074°02'0 0.0
2016-May-02 22:33N 40°40' W 074°02'0 0.0
2016-May-02 21:34N 40°40' W 074°02'0 0.0
2016-May-02 20:34N 40°40' W 074°02'0 0.1
2016-May-02 19:34N 40°40' W 074°02'0 0.1
2016-May-02 18:33N 40°40' W 074°02'0 0.2
2016-May-02 17:33N 40°40' W 074°03'6 2.7
2016-May-02 15:27N 40°39' W 074°10'0 0.0
2016-May-02 14:33N 40°39' W 074°10'0 0.0
2016-May-02 11:18N 40°38' W 074°10'0 0.0
2016-May-02 08:27N 40°38' W 074°10'0 0.0
2016-May-02 07:34N 40°38' W 074°10'0 0.0
2016-May-01 23:15N 40°38' W 074°10'6 8.7
2016-May-01 22:34N 40°40' W 074°02'3 1.2
2016-May-01 19:34N 40°42' W 073°59'9 4.4
2016-May-01 17:28N 40°39' W 074°10'0 0.0
2016-May-01 16:29N 40°39' W 074°10'0 0.0
2016-May-01 13:25N 40°39' W 074°10'0 0.0
2016-May-01 12:13N 40°39' W 074°10'0 0.0
2016-May-01 08:33N 40°39' W 074°10'0 0.0
2016-May-01 07:33N 40°39' W 074°10'0 0.0
2016-May-01 06:34N 40°39' W 074°10'0 0.1
2016-May-01 03:26N 40°39' W 074°10'0 0.2
2016-May-01 01:07N 40°39' W 074°10'2 0.1
2016-Apr-30 06:31N 40°37' W 074°12'2 0.4
2016-Apr-30 00:11N 40°39' W 074°10'4 6.5
2016-Apr-29 23:33N 40°39' W 074°05'4 1.9
2016-Apr-29 21:21N 40°39' W 074°10'1 0.4
2016-Apr-29 17:33N 40°38' W 074°12'0 0.2
2016-Apr-29 16:34N 40°38' W 074°12'1 1.3
2016-Apr-29 15:34N 40°38' W 074°10'0 0.0
2016-Apr-29 14:34N 40°38' W 074°10'0 0.0
2016-Apr-29 13:34N 40°38' W 074°10'0 0.0
2016-Apr-29 12:33N 40°38' W 074°10'0 0.0
2016-Apr-29 11:34N 40°38' W 074°10'4 3.6
2016-Apr-29 10:32N 40°39' W 074°05'0 0.5
2016-Apr-29 09:31N 40°39' W 074°06'3 1.0
2016-Apr-29 06:13N 40°39' W 074°10'7 4.4
2016-Apr-29 04:33N 40°40' W 074°00'0 0.0
2016-Apr-29 03:33N 40°40' W 074°00'0 0.0
2016-Apr-29 02:34N 40°40' W 074°00'0 0.0
2016-Apr-29 01:33N 40°40' W 074°00'0 0.0
2016-Apr-29 00:34N 40°40' W 074°00'0 0.0
2016-Apr-28 23:34N 40°40' W 074°00'0 0.0
2016-Apr-28 22:34N 40°40' W 074°00'0 0.0
2016-Apr-28 21:34N 40°40' W 074°00'1 1.1
2016-Apr-28 20:33N 40°41' W 074°01'7 0.5
2016-Apr-28 06:29N 40°47' W 073°55'4 4.1
2016-Apr-28 05:34N 40°44' W 073°58'3 3.2
2016-Apr-28 04:34N 40°41' W 074°01'3 2.8
2016-Apr-28 03:34N 40°39' W 074°03'5 4.6
2016-Apr-28 02:34N 40°39' W 074°09'3 0.3
2016-Apr-27 15:06N 40°36' W 074°12'3 0.8
2016-Apr-27 11:28N 40°39' W 074°10'0 0.0
2016-Apr-27 05:27N 40°39' W 074°10'0 0.0
2016-Apr-27 02:15N 40°39' W 074°10'0 0.0
2016-Apr-27 01:32N 40°39' W 074°10'4 4.3
2016-Apr-27 00:34N 40°39' W 074°05'2 1.6
2016-Apr-26 23:33N 40°40' W 074°03'  

Dump ship's entire track history